East Shoals, Indiana
Current Conditions -  °F | °C
As of 8:55 PM on Tuesday 25 Nov 2014 (Local Time) from KDCY Reporting Station
Overcast Overcast  
Wind Chill: -4°   Ceiling: 1800
Heat Index: -1°   Visibility: 10mi
Dew Point: -3°   Wind: 6mph
Humidity: 84%   Direction: 340°NNW
Pressure: 30.22"   Gusts: NA
Location:  38.6262°N, 86.7615°W
Report Text: KDCY 260255Z AUTO 34005KT 10SM OVC018 M01/M03 A3022 RMK AO2 T10091033
Loading
Personal Weather Stations






























Interactive Weather Map New forecast layout! Learn more

10-Day Weather Forecast

Advertisements
Track Severe Weather on mobile